createdAt,value
2017-09-11T00:01:15.481Z,3.00
2017-09-11T00:03:43.769Z,2.80
2017-09-11T00:06:12.057Z,2.33
2017-09-11T00:08:40.364Z,3.00
2017-09-11T00:11:08.649Z,2.30
2017-09-11T00:13:37.721Z,2.20
2017-09-11T00:16:06.029Z,2.33
2017-09-11T00:18:35.092Z,2.40
2017-09-11T00:21:03.381Z,2.30
2017-09-11T00:23:31.686Z,2.40
2017-09-11T00:26:00.738Z,2.37
2017-09-11T00:28:29.047Z,2.40
2017-09-11T00:30:58.107Z,2.07
2017-09-11T00:33:27.189Z,2.80
2017-09-11T00:35:55.472Z,2.70
2017-09-11T00:38:23.761Z,2.80
2017-09-11T00:40:52.068Z,2.63
2017-09-11T00:43:21.124Z,2.57
2017-09-11T00:45:49.416Z,2.10
2017-09-11T00:48:17.705Z,2.90
2017-09-11T00:50:46.774Z,4.07
2017-09-11T00:53:15.061Z,3.43
2017-09-11T00:55:43.384Z,3.00
2017-09-11T00:58:11.681Z,2.70
2017-09-11T01:00:39.977Z,3.77
2017-09-11T01:03:08.259Z,2.70
2017-09-11T01:05:36.579Z,2.50
2017-09-11T01:08:05.632Z,3.47
2017-09-11T01:10:33.928Z,3.27
2017-09-11T01:13:02.221Z,3.17
2017-09-11T01:15:31.293Z,2.27
2017-09-11T01:17:59.602Z,2.87
2017-09-11T01:20:27.894Z,3.27
2017-09-11T01:22:56.214Z,3.20
2017-09-11T01:25:25.317Z,2.43
2017-09-11T01:27:53.676Z,2.70
2017-09-11T01:30:21.960Z,2.97
2017-09-11T01:32:50.272Z,2.60
2017-09-11T01:35:19.432Z,3.40
2017-09-11T01:37:47.752Z,2.90
2017-09-11T01:40:16.812Z,3.50
2017-09-11T01:42:45.152Z,3.80
2017-09-11T01:45:13.469Z,2.83
2017-09-11T01:47:41.781Z,3.20
2017-09-11T01:50:10.086Z,2.93
2017-09-11T01:52:38.374Z,3.20
2017-09-11T01:55:06.676Z,4.00
2017-09-11T01:57:35.011Z,3.40
2017-09-11T02:00:03.300Z,3.47
2017-09-11T02:02:31.580Z,3.60
2017-09-11T02:04:59.877Z,3.33
2017-09-11T02:07:28.173Z,4.03
2017-09-11T02:09:56.493Z,3.40
2017-09-11T02:12:24.782Z,4.63
2017-09-11T02:14:53.064Z,3.73
2017-09-11T02:17:21.364Z,3.73
2017-09-11T02:19:49.653Z,3.10
2017-09-11T02:22:17.951Z,3.90
2017-09-11T02:24:47.012Z,3.50
2017-09-11T02:27:15.313Z,3.50
2017-09-11T02:29:44.371Z,3.37
2017-09-11T02:32:12.667Z,3.57
2017-09-11T02:34:40.971Z,3.80
2017-09-11T02:37:10.036Z,3.40
2017-09-11T02:39:38.315Z,4.57
2017-09-11T02:42:06.628Z,5.10
2017-09-11T02:44:35.684Z,4.37
2017-09-11T02:47:03.990Z,4.83
2017-09-11T02:49:33.059Z,4.57
2017-09-11T02:52:01.354Z,5.40
2017-09-11T02:54:30.421Z,4.43
2017-09-11T02:56:58.713Z,4.33
2017-09-11T02:59:27.018Z,4.40
2017-09-11T03:01:56.085Z,4.83
2017-09-11T03:04:24.380Z,4.57
2017-09-11T03:06:53.433Z,4.33
2017-09-11T03:09:21.801Z,4.80
2017-09-11T03:11:50.087Z,5.47
2017-09-11T03:14:18.417Z,5.23
2017-09-11T03:16:47.480Z,4.60
2017-09-11T03:19:15.781Z,4.17
2017-09-11T03:21:44.854Z,4.80
2017-09-11T03:24:13.181Z,5.47
2017-09-11T03:26:41.481Z,5.30
2017-09-11T03:29:09.785Z,5.63
2017-09-11T03:31:38.103Z,6.23
2017-09-11T03:34:06.393Z,5.37
2017-09-11T03:36:34.716Z,4.87
2017-09-11T03:39:03.010Z,5.00
2017-09-11T03:41:32.066Z,5.40
2017-09-11T03:44:00.356Z,4.83
2017-09-11T03:46:28.654Z,5.67
2017-09-11T03:48:57.716Z,5.70
2017-09-11T03:51:26.004Z,6.30
2017-09-11T03:53:54.309Z,5.00
2017-09-11T03:56:23.373Z,4.87
2017-09-11T03:58:51.696Z,4.97
2017-09-11T04:01:20.768Z,4.50
2017-09-11T04:03:49.824Z,4.40
2017-09-11T04:06:18.140Z,4.50
2017-09-11T04:08:46.425Z,4.87
2017-09-11T04:11:15.497Z,4.80
2017-09-11T04:13:43.810Z,5.17
2017-09-11T04:16:12.873Z,5.10
2017-09-11T04:18:41.167Z,5.50
2017-09-11T04:21:10.299Z,6.07
2017-09-11T04:23:38.580Z,5.20
2017-09-11T04:26:06.875Z,5.60
2017-09-11T04:28:35.193Z,5.40
2017-09-11T04:31:04.293Z,5.73
2017-09-11T04:33:33.348Z,6.07
2017-09-11T04:38:39.910Z,5.53
2017-09-11T04:41:08.235Z,6.33
2017-09-11T04:43:36.562Z,6.40
2017-09-11T04:46:04.857Z,5.50
2017-09-11T04:48:33.166Z,6.40
2017-09-11T04:51:01.466Z,6.00
2017-09-11T04:53:30.537Z,5.90
2017-09-11T04:55:58.833Z,7.30
2017-09-11T04:58:27.914Z,6.10
2017-09-11T05:00:56.239Z,7.43
2017-09-11T05:03:24.567Z,6.67
2017-09-11T05:05:52.862Z,6.77
2017-09-11T05:08:21.932Z,5.53
2017-09-11T05:10:50.230Z,6.00
2017-09-11T05:13:19.325Z,5.30
2017-09-11T05:15:48.390Z,5.70
2017-09-11T05:18:16.693Z,5.87
2017-09-11T05:20:45.793Z,6.10
2017-09-11T05:23:14.093Z,6.27
2017-09-11T05:25:42.395Z,5.80
2017-09-11T05:28:10.686Z,5.37
2017-09-11T05:30:39.030Z,4.77
2017-09-11T05:33:07.311Z,5.00
2017-09-11T05:35:35.621Z,4.77
2017-09-11T05:38:04.023Z,4.47
2017-09-11T05:40:32.373Z,3.87
2017-09-11T05:43:00.671Z,4.53
2017-09-11T05:45:29.765Z,4.27
2017-09-11T05:47:58.083Z,4.00
2017-09-11T05:50:26.382Z,4.10
2017-09-11T05:52:54.696Z,4.80
2017-09-11T05:55:22.999Z,4.40
2017-09-11T05:57:52.077Z,3.80
2017-09-11T06:00:21.143Z,3.93
2017-09-11T06:02:49.454Z,3.80
2017-09-11T06:05:18.529Z,3.63
2017-09-11T06:07:46.836Z,4.40
2017-09-11T06:10:15.923Z,4.07
2017-09-11T06:12:45.086Z,3.17
2017-09-11T06:15:13.477Z,4.20
2017-09-11T06:17:41.774Z,3.80
2017-09-11T06:20:10.842Z,3.07
2017-09-11T06:22:39.228Z,3.43
2017-09-11T06:25:07.608Z,4.37
2017-09-11T06:27:35.897Z,3.13
2017-09-11T06:30:04.201Z,3.00
2017-09-11T06:32:32.502Z,3.30
2017-09-11T06:35:00.809Z,3.17
2017-09-11T06:37:29.111Z,2.57
2017-09-11T06:39:58.207Z,2.60
2017-09-11T06:42:27.276Z,3.00
2017-09-11T06:44:55.569Z,3.07
2017-09-11T06:47:23.873Z,2.67
2017-09-11T06:49:52.182Z,2.77
2017-09-11T06:52:20.500Z,2.77
2017-09-11T06:54:48.819Z,2.60
2017-09-11T06:57:17.138Z,3.40
2017-09-11T06:59:45.443Z,3.00
2017-09-11T07:02:13.804Z,2.93
2017-09-11T07:04:42.876Z,3.50
2017-09-11T07:07:11.197Z,2.80
2017-09-11T07:09:40.258Z,2.60
2017-09-11T07:12:26.252Z,2.30
2017-09-11T07:14:54.550Z,2.60
2017-09-11T07:17:23.615Z,2.33
2017-09-11T07:19:51.917Z,2.60
2017-09-11T07:22:20.210Z,2.23
2017-09-11T07:24:49.287Z,2.03
2017-09-11T07:27:17.585Z,2.20
2017-09-11T07:29:46.657Z,2.20
2017-09-11T07:32:14.954Z,2.00
2017-09-11T07:34:44.025Z,2.20
2017-09-11T07:37:12.323Z,2.87
2017-09-11T07:39:41.419Z,2.10
2017-09-11T07:42:10.498Z,2.30
2017-09-11T07:44:38.799Z,2.47
2017-09-11T07:47:07.879Z,2.73
2017-09-11T07:49:36.174Z,2.00
2017-09-11T07:52:05.256Z,2.50
2017-09-11T07:54:34.325Z,2.60
2017-09-11T07:57:02.631Z,2.90
2017-09-11T07:59:31.703Z,2.43
2017-09-11T08:02:00.010Z,3.00
2017-09-11T08:04:29.078Z,2.90
2017-09-11T08:06:57.397Z,3.00
2017-09-11T08:09:25.693Z,3.30
2017-09-11T08:11:54.023Z,2.93
2017-09-11T08:14:22.330Z,2.83
2017-09-11T08:16:50.627Z,3.13
2017-09-11T08:19:18.934Z,2.93
2017-09-11T08:21:47.230Z,3.40
2017-09-11T08:24:15.538Z,3.90
2017-09-11T08:26:43.838Z,2.60
2017-09-11T08:29:12.138Z,2.27
2017-09-11T08:31:40.447Z,2.00
2017-09-11T08:34:09.530Z,1.97
2017-09-11T08:36:37.823Z,2.17
2017-09-11T08:39:06.913Z,2.30
2017-09-11T08:41:35.977Z,3.03
2017-09-11T08:44:04.269Z,2.40
2017-09-11T08:46:32.581Z,1.97
2017-09-11T08:49:00.878Z,2.03
2017-09-11T08:51:29.187Z,2.43
2017-09-11T08:53:57.479Z,1.60
2017-09-11T08:56:25.786Z,2.10
2017-09-11T08:58:54.846Z,2.07
2017-09-11T09:01:23.159Z,2.37
2017-09-11T09:03:51.456Z,2.23
2017-09-11T09:06:19.759Z,1.73
2017-09-11T09:08:48.058Z,1.90
2017-09-11T09:11:16.398Z,1.80
2017-09-11T09:13:44.689Z,1.70
2017-09-11T09:16:12.994Z,1.60
2017-09-11T09:18:41.297Z,1.50
2017-09-11T09:21:09.596Z,1.80
2017-09-11T09:23:37.901Z,1.60
2017-09-11T09:26:06.194Z,1.73
2017-09-11T09:28:35.274Z,1.67
2017-09-11T09:31:03.571Z,1.80
2017-09-11T09:33:31.874Z,2.10
2017-09-11T09:36:00.935Z,2.47
2017-09-11T09:38:29.271Z,1.63
2017-09-11T09:40:57.576Z,1.93
2017-09-11T09:43:25.870Z,1.83
2017-09-11T09:45:54.180Z,1.80
2017-09-11T09:48:22.488Z,1.30
2017-09-11T09:50:50.881Z,1.87
2017-09-11T09:53:19.961Z,2.30
2017-09-11T09:55:48.262Z,1.70
2017-09-11T09:58:16.554Z,1.83
2017-09-11T10:00:44.867Z,1.90
2017-09-11T10:03:13.166Z,2.03
2017-09-11T10:05:41.478Z,2.07
2017-09-11T10:08:09.778Z,1.80
2017-09-11T10:10:38.847Z,2.17
2017-09-11T10:13:07.154Z,1.70
2017-09-11T10:15:36.226Z,2.40
2017-09-11T10:18:04.530Z,1.97
2017-09-11T10:20:33.615Z,1.27
2017-09-11T10:23:02.714Z,2.00
2017-09-11T10:25:31.773Z,2.13
2017-09-11T10:28:00.065Z,1.70
2017-09-11T10:30:28.371Z,1.57
2017-09-11T10:32:57.431Z,1.60
2017-09-11T10:35:25.748Z,1.97
2017-09-11T10:37:54.070Z,1.50
2017-09-11T10:40:22.382Z,2.33
2017-09-11T10:42:51.441Z,1.90
2017-09-11T10:45:19.754Z,1.30
2017-09-11T10:47:48.822Z,1.20
2017-09-11T10:50:17.134Z,1.33
2017-09-11T10:52:46.202Z,2.10
2017-09-11T10:55:14.506Z,1.70
2017-09-11T10:57:43.663Z,1.63
2017-09-11T11:00:11.966Z,1.80
2017-09-11T11:02:41.045Z,2.10
2017-09-11T11:05:09.338Z,1.47
2017-09-11T11:07:38.405Z,1.50
2017-09-11T11:10:06.698Z,1.70
2017-09-11T11:12:35.030Z,1.60
2017-09-11T11:15:03.330Z,1.90
2017-09-11T11:17:31.618Z,2.33
2017-09-11T11:19:59.923Z,2.27
2017-09-11T11:22:28.982Z,1.90
2017-09-11T11:24:57.288Z,1.90
2017-09-11T11:27:26.354Z,2.10
2017-09-11T11:29:54.650Z,2.10
2017-09-11T11:32:22.945Z,1.50
2017-09-11T11:34:52.021Z,1.67
2017-09-11T11:37:20.319Z,2.80
2017-09-11T11:40:21.942Z,1.97
2017-09-11T11:42:50.252Z,1.27
2017-09-11T11:45:19.346Z,2.10
2017-09-11T11:47:47.641Z,1.10
2017-09-11T11:50:16.710Z,1.57
2017-09-11T11:52:45.027Z,1.50
2017-09-11T11:55:14.090Z,1.27
2017-09-11T11:57:43.161Z,0.90
2017-09-11T12:00:11.464Z,1.00
2017-09-11T12:02:40.535Z,1.00
2017-09-11T12:05:08.834Z,1.00
2017-09-11T12:07:37.926Z,1.20
2017-09-11T12:10:06.554Z,0.90
2017-09-11T12:12:34.850Z,1.27
2017-09-11T12:15:03.161Z,1.03
2017-09-11T12:17:31.457Z,1.13
2017-09-11T12:20:00.539Z,1.53
2017-09-11T12:22:29.601Z,1.17
2017-09-11T12:24:57.903Z,1.00
2017-09-11T12:27:26.214Z,1.77
2017-09-11T12:29:54.521Z,0.90
2017-09-11T12:32:22.827Z,1.10
2017-09-11T12:34:51.162Z,1.00
2017-09-11T12:37:20.046Z,1.10
2017-09-11T12:39:48.355Z,1.03
2017-09-11T12:42:16.686Z,1.07
2017-09-11T12:44:45.073Z,1.30
2017-09-11T12:47:13.374Z,1.20
2017-09-11T12:49:41.670Z,1.13
2017-09-11T12:52:10.000Z,0.97
2017-09-11T12:54:38.396Z,1.03
2017-09-11T12:57:06.725Z,2.00
2017-09-11T12:59:35.034Z,1.17
2017-09-11T13:02:03.343Z,1.03
2017-09-11T13:04:31.653Z,1.10
2017-09-11T13:06:59.946Z,1.90
2017-09-11T13:09:29.446Z,1.10
2017-09-11T13:11:58.513Z,0.77
2017-09-11T13:14:26.822Z,0.97
2017-09-11T13:16:55.890Z,0.70
2017-09-11T13:19:24.231Z,0.80
2017-09-11T13:21:52.540Z,1.03
2017-09-11T13:24:20.851Z,1.07
2017-09-11T13:26:49.933Z,1.57
2017-09-11T13:29:18.239Z,1.03
2017-09-11T13:31:46.550Z,1.23
2017-09-11T13:34:14.856Z,1.17
2017-09-11T13:36:43.187Z,1.10
2017-09-11T13:39:11.482Z,1.43
2017-09-11T13:41:39.786Z,1.60
2017-09-11T13:44:08.097Z,1.80
2017-09-11T13:46:37.163Z,1.10
2017-09-11T13:49:05.487Z,1.10
2017-09-11T13:51:33.803Z,1.37
2017-09-11T13:54:02.112Z,1.73
2017-09-11T13:56:31.199Z,1.23
2017-09-11T13:58:59.522Z,1.33
2017-09-11T14:01:27.825Z,1.30
2017-09-11T14:03:56.146Z,1.37
2017-09-11T14:06:25.215Z,1.00
2017-09-11T14:08:53.617Z,1.30
2017-09-11T14:11:22.683Z,1.20
2017-09-11T14:13:50.987Z,1.13
2017-09-11T14:16:20.069Z,1.30
2017-09-11T14:18:48.383Z,1.03
2017-09-11T14:21:16.725Z,1.20
2017-09-11T14:23:45.011Z,1.17
2017-09-11T14:26:14.086Z,1.90
2017-09-11T14:28:42.401Z,1.80
2017-09-11T14:31:10.731Z,2.60
2017-09-11T14:33:39.038Z,2.80
2017-09-11T14:36:08.118Z,4.40
2017-09-11T14:38:36.444Z,1.43
2017-09-11T14:41:04.745Z,1.60
2017-09-11T14:43:33.054Z,1.43
2017-09-11T14:46:01.360Z,1.30
2017-09-11T14:48:29.664Z,1.27
2017-09-11T14:50:57.966Z,1.10
2017-09-11T14:53:26.274Z,4.57
2017-09-11T14:55:55.336Z,3.07
2017-09-11T14:58:23.675Z,2.00
2017-09-11T15:00:51.974Z,3.00
2017-09-11T15:03:20.274Z,4.30
2017-09-11T15:05:48.589Z,1.60
2017-09-11T15:08:17.663Z,1.00
2017-09-11T15:10:45.979Z,1.80
2017-09-11T15:13:14.278Z,0.77
2017-09-11T15:15:42.594Z,1.77
2017-09-11T15:18:10.890Z,0.90
2017-09-11T15:20:39.974Z,1.53
2017-09-11T15:23:09.043Z,1.00
2017-09-11T15:25:37.374Z,1.10
2017-09-11T15:28:05.726Z,1.00
2017-09-11T15:30:34.793Z,1.47
2017-09-11T15:33:03.108Z,1.50
2017-09-11T15:35:32.174Z,1.53
2017-09-11T15:38:00.483Z,1.40
2017-09-11T15:40:29.545Z,1.10
2017-09-11T15:42:57.854Z,1.10
2017-09-11T15:45:26.149Z,0.83
2017-09-11T15:47:54.494Z,1.00
2017-09-11T15:50:23.558Z,1.20
2017-09-11T15:52:52.618Z,1.10
2017-09-11T15:55:20.943Z,1.00
2017-09-11T15:57:49.237Z,1.40
2017-09-11T16:00:18.318Z,1.03
2017-09-11T16:02:46.617Z,1.20
2017-09-11T16:05:15.702Z,1.20
2017-09-11T16:07:44.770Z,1.00
2017-09-11T16:10:13.107Z,1.43
2017-09-11T16:12:41.428Z,0.80
2017-09-11T16:15:09.732Z,1.20
2017-09-11T16:17:38.816Z,1.20
2017-09-11T16:20:07.117Z,1.20
2017-09-11T16:22:35.439Z,1.07
2017-09-11T16:25:03.751Z,0.83
2017-09-11T16:27:32.058Z,0.90
2017-09-11T16:30:00.354Z,0.77
2017-09-11T16:32:28.682Z,0.97
2017-09-11T16:34:56.985Z,1.37
2017-09-11T16:37:26.053Z,0.77
2017-09-11T16:39:54.362Z,1.00
2017-09-11T16:42:22.657Z,1.13
2017-09-11T16:44:50.971Z,0.80
2017-09-11T16:47:19.275Z,1.00
2017-09-11T16:49:48.354Z,1.03
2017-09-11T16:52:16.646Z,1.13
2017-09-11T16:54:45.746Z,1.23
2017-09-11T16:57:14.820Z,1.40
2017-09-11T16:59:43.139Z,1.60
2017-09-11T17:02:11.453Z,1.30
2017-09-11T17:04:39.754Z,1.07
2017-09-11T17:07:08.061Z,1.30
2017-09-11T17:09:36.366Z,0.80
2017-09-11T17:12:04.681Z,1.80
2017-09-11T17:14:32.982Z,1.10
2017-09-11T17:17:02.052Z,1.40
2017-09-11T17:19:30.351Z,0.97
2017-09-11T17:21:59.450Z,1.63
2017-09-11T17:24:28.519Z,1.50
2017-09-11T17:26:56.821Z,1.23
2017-09-11T17:29:25.892Z,1.50
2017-09-11T17:31:54.186Z,1.10
2017-09-11T17:34:23.262Z,1.80
2017-09-11T17:36:51.562Z,2.00
2017-09-11T17:39:20.646Z,1.50
2017-09-11T17:41:48.950Z,1.40
2017-09-11T17:44:17.265Z,1.03
2017-09-11T17:46:45.563Z,1.60
2017-09-11T17:49:13.894Z,1.70
2017-09-11T17:51:42.186Z,1.70
2017-09-11T17:54:10.492Z,1.20
2017-09-11T17:56:38.804Z,1.63
2017-09-11T17:59:07.882Z,2.10
2017-09-11T18:01:36.185Z,1.83
2017-09-11T18:04:04.481Z,2.03
2017-09-11T18:06:33.061Z,2.23
2017-09-11T18:09:01.364Z,1.50
2017-09-11T18:11:29.669Z,1.80
2017-09-11T18:13:57.965Z,1.80
2017-09-11T18:16:27.070Z,1.63
2017-09-11T18:18:55.405Z,1.73
2017-09-11T18:21:23.697Z,1.40
2017-09-11T18:23:52.022Z,1.20
2017-09-11T18:26:20.318Z,1.73
2017-09-11T18:28:48.627Z,1.20
2017-09-11T18:31:16.922Z,1.97
2017-09-11T18:33:45.994Z,2.00
2017-09-11T18:36:14.290Z,1.80
2017-09-11T18:38:43.418Z,2.33
2017-09-11T18:41:11.714Z,1.80
2017-09-11T18:43:40.043Z,1.70
2017-09-11T18:46:09.112Z,1.40
2017-09-11T18:48:37.406Z,1.70
2017-09-11T18:51:06.483Z,1.87
2017-09-11T18:53:34.779Z,1.93
2017-09-11T18:56:03.855Z,1.70
2017-09-11T18:58:32.177Z,1.90
2017-09-11T19:01:00.479Z,2.70
2017-09-11T19:03:28.777Z,1.90
2017-09-11T19:05:57.091Z,1.67
2017-09-11T19:08:26.150Z,2.00
2017-09-11T19:10:54.458Z,2.90
2017-09-11T19:13:23.528Z,2.10
2017-09-11T19:15:51.845Z,2.00
2017-09-11T19:18:20.166Z,2.23
2017-09-11T19:20:48.461Z,1.73
2017-09-11T19:23:16.766Z,2.20
2017-09-11T19:25:45.825Z,2.00
2017-09-11T19:28:14.130Z,2.07
2017-09-11T19:30:43.210Z,2.53
2017-09-11T19:33:11.529Z,2.00
2017-09-11T19:35:39.827Z,2.13
2017-09-11T19:38:08.153Z,1.90
2017-09-11T19:40:37.218Z,1.80
2017-09-11T19:43:05.522Z,1.80
2017-09-11T19:45:34.602Z,2.30
2017-09-11T19:48:02.898Z,2.37
2017-09-11T19:50:31.205Z,2.23
2017-09-11T19:52:59.502Z,2.47
2017-09-11T19:55:27.821Z,2.33
2017-09-11T19:57:56.122Z,2.13
2017-09-11T20:00:24.430Z,2.13
2017-09-11T20:02:52.734Z,2.83
2017-09-11T20:05:21.034Z,2.40
2017-09-11T20:07:49.352Z,2.67
2017-09-11T20:10:17.654Z,2.40
2017-09-11T20:12:45.958Z,3.20
2017-09-11T20:15:14.258Z,2.13
2017-09-11T20:17:43.315Z,2.37
2017-09-11T20:20:12.394Z,2.20
2017-09-11T20:22:40.699Z,2.20
2017-09-11T20:25:09.005Z,1.97
2017-09-11T20:27:37.316Z,2.43
2017-09-11T20:30:05.626Z,3.20
2017-09-11T20:32:33.922Z,2.33
2017-09-11T20:35:02.994Z,1.70
2017-09-11T20:37:31.294Z,3.10
2017-09-11T20:40:00.361Z,2.53
2017-09-11T20:42:28.666Z,1.83
2017-09-11T20:44:57.757Z,1.80
2017-09-11T20:47:26.818Z,2.23
2017-09-11T20:49:55.123Z,1.80
2017-09-11T20:52:23.438Z,2.60
2017-09-11T20:54:51.736Z,2.60
2017-09-11T20:57:20.042Z,2.47
2017-09-11T20:59:48.334Z,2.03
2017-09-11T21:02:16.640Z,2.80
2017-09-11T21:04:44.934Z,2.37
2017-09-11T21:07:13.246Z,3.30
2017-09-11T21:09:41.537Z,1.87
2017-09-11T21:12:09.864Z,2.33
2017-09-11T21:14:38.167Z,2.93
2017-09-11T21:17:06.463Z,2.23
2017-09-11T21:19:34.775Z,2.80
2017-09-11T21:22:03.074Z,1.93
2017-09-11T21:24:31.396Z,2.57
2017-09-11T21:26:59.726Z,2.97
2017-09-11T21:29:28.034Z,3.03
2017-09-11T21:31:56.326Z,2.10
2017-09-11T21:34:24.634Z,3.10
2017-09-11T21:36:53.706Z,2.40
2017-09-11T21:39:22.025Z,3.10
2017-09-11T21:41:50.326Z,2.80
2017-09-11T21:44:18.650Z,2.90
2017-09-11T21:46:47.715Z,2.63
2017-09-11T21:49:16.014Z,2.80
2017-09-11T21:51:44.323Z,2.40
2017-09-11T21:54:12.634Z,3.60
2017-09-11T21:56:40.936Z,2.30
2017-09-11T21:59:09.242Z,2.57
2017-09-11T22:01:37.554Z,2.40
2017-09-11T22:04:05.855Z,2.70
2017-09-11T22:06:34.168Z,2.53
2017-09-11T22:09:03.240Z,2.73
2017-09-11T22:11:31.573Z,2.57
2017-09-11T22:13:59.877Z,2.13
2017-09-11T22:16:28.170Z,1.43
2017-09-11T22:18:56.469Z,1.93
2017-09-11T22:21:25.526Z,2.30
2017-09-11T22:23:53.838Z,1.63
2017-09-11T22:26:22.907Z,1.97
2017-09-11T22:28:51.210Z,2.23
2017-09-11T22:31:20.266Z,1.80
2017-09-11T22:33:48.590Z,1.87
2017-09-11T22:36:17.645Z,2.10
2017-09-11T22:38:45.937Z,2.40
2017-09-11T22:41:14.248Z,2.03
2017-09-11T22:43:42.546Z,2.07
2017-09-11T22:46:10.848Z,1.83
2017-09-11T22:48:39.157Z,2.30
2017-09-11T22:51:08.225Z,2.03
2017-09-11T22:53:36.522Z,2.83
2017-09-11T22:56:05.661Z,2.20
2017-09-11T22:58:33.955Z,2.07
2017-09-11T23:01:02.270Z,1.87
2017-09-11T23:03:31.342Z,2.07
2017-09-11T23:05:59.639Z,2.20
2017-09-11T23:08:27.951Z,1.87
2017-09-11T23:10:56.248Z,2.57
2017-09-11T23:13:24.550Z,1.97
2017-09-11T23:15:52.846Z,1.70
2017-09-11T23:18:21.162Z,2.17
2017-09-11T23:20:49.449Z,2.07
2017-09-11T23:23:17.752Z,2.03
2017-09-11T23:25:46.053Z,2.03
2017-09-11T23:28:14.356Z,2.03
2017-09-11T23:30:43.411Z,2.37
2017-09-11T23:33:11.721Z,2.30
2017-09-11T23:35:40.802Z,2.13
2017-09-11T23:38:09.097Z,2.10
2017-09-11T23:40:38.165Z,2.17
2017-09-11T23:43:06.462Z,1.80
2017-09-11T23:45:35.527Z,1.63
2017-09-11T23:48:03.867Z,2.10
2017-09-11T23:50:32.165Z,1.87
2017-09-11T23:53:00.452Z,2.27
2017-09-11T23:55:28.754Z,2.03
2017-09-11T23:57:57.054Z,1.83
